sensor_id;sensor_type;location;lat;lon;timestamp;pressure;altitude;pressure_sealevel;temperature
37414;BMP280;23279;46.472;30.760;2022-12-01T00:00:40;79939.22;;;-146.33
37414;BMP280;23279;46.472;30.760;2022-12-01T00:03:06;79939.22;;;-146.33
37414;BMP280;23279;46.472;30.760;2022-12-01T00:05:31;79945.34;;;-146.33
37414;BMP280;23279;46.472;30.760;2022-12-01T00:07:57;79949.41;;;-146.33
37414;BMP280;23279;46.472;30.760;2022-12-01T00:10:24;79933.13;;;-146.33
37414;BMP280;23279;46.472;30.760;2022-12-01T00:12:53;79941.28;;;-146.33
37414;BMP280;23279;46.472;30.760;2022-12-01T00:15:19;79963.66;;;-146.33
37414;BMP280;23279;46.472;30.760;2022-12-01T00:17:46;79935.16;;;-146.33
37414;BMP280;23279;46.472;30.760;2022-12-01T00:20:13;79957.56;;;-146.33
37414;BMP280;23279;46.472;30.760;2022-12-01T00:22:45;79937.19;;;-146.33
37414;BMP280;23279;46.472;30.760;2022-12-01T00:25:13;79959.59;;;-146.33
37414;BMP280;23279;46.472;30.760;2022-12-01T00:27:39;79933.13;;;-146.33
37414;BMP280;23279;46.472;30.760;2022-12-01T00:30:06;79953.50;;;-146.33
37414;BMP280;23279;46.472;30.760;2022-12-01T00:32:32;79977.91;;;-146.33
37414;BMP280;23279;46.472;30.760;2022-12-01T00:34:57;79969.78;;;-146.33
37414;BMP280;23279;46.472;30.760;2022-12-01T00:37:23;79965.72;;;-146.33
37414;BMP280;23279;46.472;30.760;2022-12-01T00:39:48;79949.41;;;-146.33
37414;BMP280;23279;46.472;30.760;2022-12-01T00:42:14;79933.13;;;-146.33
37414;BMP280;23279;46.472;30.760;2022-12-01T00:44:39;79945.34;;;-146.33
37414;BMP280;23279;46.472;30.760;2022-12-01T00:47:05;79955.53;;;-146.33
37414;BMP280;23279;46.472;30.760;2022-12-01T00:49:30;79957.56;;;-146.33
37414;BMP280;23279;46.472;30.760;2022-12-01T00:51:56;79965.72;;;-146.33
37414;BMP280;23279;46.472;30.760;2022-12-01T00:54:21;79945.34;;;-146.33
37414;BMP280;23279;46.472;30.760;2022-12-01T00:56:47;79959.59;;;-146.33
37414;BMP280;23279;46.472;30.760;2022-12-01T00:59:12;79937.19;;;-146.33
37414;BMP280;23279;46.472;30.760;2022-12-01T01:01:38;79965.72;;;-146.33
37414;BMP280;23279;46.472;30.760;2022-12-01T01:04:04;79973.84;;;-146.33
37414;BMP280;23279;46.472;30.760;2022-12-01T01:06:30;79943.31;;;-146.33
37414;BMP280;23279;46.472;30.760;2022-12-01T01:08:55;79933.13;;;-146.33
37414;BMP280;23279;46.472;30.760;2022-12-01T01:11:21;79924.97;;;-146.33
37414;BMP280;23279;46.472;30.760;2022-12-01T01:13:46;79920.91;;;-146.33
37414;BMP280;23279;46.472;30.760;2022-12-01T01:16:21;79929.06;;;-146.33
37414;BMP280;23279;46.472;30.760;2022-12-01T01:18:47;79945.34;;;-146.33
37414;BMP280;23279;46.472;30.760;2022-12-01T01:21:15;79937.19;;;-146.33
37414;BMP280;23279;46.472;30.760;2022-12-01T01:23:41;79904.63;;;-146.33
37414;BMP280;23279;46.472;30.760;2022-12-01T01:26:20;79908.69;;;-146.33
37414;BMP280;23279;46.472;30.760;2022-12-01T01:28:46;79900.53;;;-146.33
37414;BMP280;23279;46.472;30.760;2022-12-01T01:31:14;79884.25;;;-146.33
37414;BMP280;23279;46.472;30.760;2022-12-01T01:33:40;79880.19;;;-146.33
37414;BMP280;23279;46.472;30.760;2022-12-01T01:36:06;79888.31;;;-146.33
37414;BMP280;23279;46.472;30.760;2022-12-01T01:38:32;79843.53;;;-146.33
37414;BMP280;23279;46.472;30.760;2022-12-01T01:40:58;79855.75;;;-146.33
37414;BMP280;23279;46.472;30.760;2022-12-01T01:44:03;79859.81;;;-146.33
37414;BMP280;23279;46.472;30.760;2022-12-01T01:46:32;79872.03;;;-146.33
37414;BMP280;23279;46.472;30.760;2022-12-01T01:49:04;79870.00;;;-146.33
37414;BMP280;23279;46.472;30.760;2022-12-01T01:51:44;79861.84;;;-146.33
37414;BMP280;23279;46.472;30.760;2022-12-01T01:54:23;79839.47;;;-146.33
37414;BMP280;23279;46.472;30.760;2022-12-01T01:56:50;79839.47;;;-146.33
37414;BMP280;23279;46.472;30.760;2022-12-01T01:59:41;79851.69;;;-146.33
37414;BMP280;23279;46.472;30.760;2022-12-01T02:02:06;79839.47;;;-146.33
37414;BMP280;23279;46.472;30.760;2022-12-01T02:04:45;79837.41;;;-146.33
37414;BMP280;23279;46.472;30.760;2022-12-01T02:07:15;79849.63;;;-146.33
37414;BMP280;23279;46.472;30.760;2022-12-01T02:09:40;79806.88;;;-146.33
37414;BMP280;23279;46.472;30.760;2022-12-01T02:12:29;79802.81;;;-146.33
37414;BMP280;23279;46.472;30.760;2022-12-01T02:28:55;79770.22;;;-146.33
37414;BMP280;23279;46.472;30.760;2022-12-01T02:31:37;79794.66;;;-146.33
37414;BMP280;23279;46.472;30.760;2022-12-01T02:36:45;79784.47;;;-146.33
37414;BMP280;23279;46.472;30.760;2022-12-01T02:39:33;79808.91;;;-146.33
37414;BMP280;23279;46.472;30.760;2022-12-01T02:42:16;79790.59;;;-146.33
37414;BMP280;23279;46.472;30.760;2022-12-01T02:45:06;79772.25;;;-146.33
37414;BMP280;23279;46.472;30.760;2022-12-01T02:47:34;79762.09;;;-146.33
37414;BMP280;23279;46.472;30.760;2022-12-01T02:50:01;79737.66;;;-146.33
37414;BMP280;23279;46.472;30.760;2022-12-01T02:52:27;79735.63;;;-146.33
37414;BMP280;23279;46.472;30.760;2022-12-01T02:54:54;79768.19;;;-146.33
37414;BMP280;23279;46.472;30.760;2022-12-01T02:57:20;79747.84;;;-146.33
37414;BMP280;23279;46.472;30.760;2022-12-01T02:59:50;79745.78;;;-146.33
37414;BMP280;23279;46.472;30.760;2022-12-01T03:07:50;79735.63;;;-146.33
37414;BMP280;23279;46.472;30.760;2022-12-01T03:15:40;79707.09;;;-146.33
37414;BMP280;23279;46.472;30.760;2022-12-01T03:21:13;79678.59;;;-146.33
37414;BMP280;23279;46.472;30.760;2022-12-01T03:23:47;79705.06;;;-146.33
37414;BMP280;23279;46.472;30.760;2022-12-01T03:26:17;79682.69;;;-146.33
37414;BMP280;23279;46.472;30.760;2022-12-01T03:29:12;79662.31;;;-146.33
37414;BMP280;23279;46.472;30.760;2022-12-01T03:31:43;79680.63;;;-146.33
37414;BMP280;23279;46.472;30.760;2022-12-01T03:36:49;79648.06;;;-146.33
37414;BMP280;23279;46.472;30.760;2022-12-01T03:39:20;79676.56;;;-146.33
37414;BMP280;23279;46.472;30.760;2022-12-01T03:41:55;79625.66;;;-146.33
37414;BMP280;23279;46.472;30.760;2022-12-01T03:44:32;79648.06;;;-146.33
37414;BMP280;23279;46.472;30.760;2022-12-01T03:47:02;79635.84;;;-146.33
37414;BMP280;23279;46.472;30.760;2022-12-01T03:49:29;79627.69;;;-146.33
37414;BMP280;23279;46.472;30.760;2022-12-01T03:52:05;79619.56;;;-146.33
37414;BMP280;23279;46.472;30.760;2022-12-01T03:54:54;79627.69;;;-146.33
37414;BMP280;23279;46.472;30.760;2022-12-01T03:57:45;79615.47;;;-146.33
37414;BMP280;23279;46.472;30.760;2022-12-01T04:00:14;79601.22;;;-146.33
37414;BMP280;23279;46.472;30.760;2022-12-01T04:02:40;79591.06;;;-146.33
37414;BMP280;23279;46.472;30.760;2022-12-01T04:05:06;79582.91;;;-146.33
37414;BMP280;23279;46.472;30.760;2022-12-01T04:07:34;79607.34;;;-146.33
37414;BMP280;23279;46.472;30.760;2022-12-01T04:09:59;79595.13;;;-146.33
37414;BMP280;23279;46.472;30.760;2022-12-01T04:12:25;79617.53;;;-146.33
37414;BMP280;23279;46.472;30.760;2022-12-01T04:14:53;79574.75;;;-146.33
37414;BMP280;23279;46.472;30.760;2022-12-01T04:17:19;79574.75;;;-146.33
37414;BMP280;23279;46.472;30.760;2022-12-01T04:19:44;79570.69;;;-146.33
37414;BMP280;23279;46.472;30.760;2022-12-01T04:22:09;79538.13;;;-146.33
37414;BMP280;23279;46.472;30.760;2022-12-01T04:24:35;79538.13;;;-146.33
37414;BMP280;23279;46.472;30.760;2022-12-01T04:27:00;79538.13;;;-146.33
37414;BMP280;23279;46.472;30.760;2022-12-01T04:29:26;79544.22;;;-146.33
37414;BMP280;23279;46.472;30.760;2022-12-01T04:31:51;79485.19;;;-146.33
37414;BMP280;23279;46.472;30.760;2022-12-01T04:34:16;79481.09;;;-146.33
37414;BMP280;23279;46.472;30.760;2022-12-01T04:36:42;79491.28;;;-146.33
37414;BMP280;23279;46.472;30.760;2022-12-01T04:39:07;79485.19;;;-146.33
37414;BMP280;23279;46.472;30.760;2022-12-01T04:41:33;79485.19;;;-146.33
37414;BMP280;23279;46.472;30.760;2022-12-01T04:43:58;79501.47;;;-146.33
37414;BMP280;23279;46.472;30.760;2022-12-01T04:46:24;79462.78;;;-146.33
37414;BMP280;23279;46.472;30.760;2022-12-01T04:48:50;79456.69;;;-146.33
37414;BMP280;23279;46.472;30.760;2022-12-01T04:51:16;79436.31;;;-146.33
37414;BMP280;23279;46.472;30.760;2022-12-01T04:53:41;79442.44;;;-146.33
37414;BMP280;23279;46.472;30.760;2022-12-01T04:56:07;79424.09;;;-146.33
37414;BMP280;23279;46.472;30.760;2022-12-01T04:58:33;79409.84;;;-146.33
37414;BMP280;23279;46.472;30.760;2022-12-01T05:01:11;79424.09;;;-146.33
37414;BMP280;23279;46.472;30.760;2022-12-01T05:03:38;79387.47;;;-146.33
37414;BMP280;23279;46.472;30.760;2022-12-01T05:06:06;79375.25;;;-146.33
37414;BMP280;23279;46.472;30.760;2022-12-01T05:08:32;79336.56;;;-146.33
37414;BMP280;23279;46.472;30.760;2022-12-01T05:10:58;79367.09;;;-146.33
37414;BMP280;23279;46.472;30.760;2022-12-01T05:13:24;79358.94;;;-146.33
37414;BMP280;23279;46.472;30.760;2022-12-01T05:15:50;79320.28;;;-146.33
37414;BMP280;23279;46.472;30.760;2022-12-01T05:18:16;79318.25;;;-146.33
37414;BMP280;23279;46.472;30.760;2022-12-01T05:20:41;79318.25;;;-146.33
37414;BMP280;23279;46.472;30.760;2022-12-01T05:23:26;79310.09;;;-146.33
37414;BMP280;23279;46.472;30.760;2022-12-01T05:25:52;79338.59;;;-146.33
37414;BMP280;23279;46.472;30.760;2022-12-01T05:28:18;79295.84;;;-146.33
37414;BMP280;23279;46.472;30.760;2022-12-01T05:30:43;79279.56;;;-146.33
37414;BMP280;23279;46.472;30.760;2022-12-01T05:33:09;79281.59;;;-146.33
37414;BMP280;23279;46.472;30.760;2022-12-01T05:35:34;79265.31;;;-146.33
37414;BMP280;23279;46.472;30.760;2022-12-01T05:38:00;79265.31;;;-146.33
37414;BMP280;23279;46.472;30.760;2022-12-01T05:40:25;79212.38;;;-146.33
37414;BMP280;23279;46.472;30.760;2022-12-01T05:42:51;79222.56;;;-146.33
37414;BMP280;23279;46.472;30.760;2022-12-01T05:45:17;79212.38;;;-146.33
37414;BMP280;23279;46.472;30.760;2022-12-01T05:47:42;79224.59;;;-146.33
37414;BMP280;23279;46.472;30.760;2022-12-01T05:50:08;79228.66;;;-146.33
37414;BMP280;23279;46.472;30.760;2022-12-01T05:52:34;79220.53;;;-146.33
37414;BMP280;23279;46.472;30.760;2022-12-01T05:55:01;79230.69;;;-146.33
37414;BMP280;23279;46.472;30.760;2022-12-01T05:57:26;79210.34;;;-146.33
37414;BMP280;23279;46.472;30.760;2022-12-01T05:59:52;79206.25;;;-146.33
37414;BMP280;23279;46.472;30.760;2022-12-01T06:02:17;79204.22;;;-146.33
37414;BMP280;23279;46.472;30.760;2022-12-01T06:04:42;79173.69;;;-146.33
37414;BMP280;23279;46.472;30.760;2022-12-01T06:07:08;79183.88;;;-146.33
37414;BMP280;23279;46.472;30.760;2022-12-01T06:09:34;79214.41;;;-146.33
37414;BMP280;23279;46.472;30.760;2022-12-01T06:11:59;79204.22;;;-146.33
37414;BMP280;23279;46.472;30.760;2022-12-01T06:14:25;79202.19;;;-146.33
37414;BMP280;23279;46.472;30.760;2022-12-01T06:16:50;79232.72;;;-146.33
37414;BMP280;23279;46.472;30.760;2022-12-01T06:19:16;79224.59;;;-146.33
37414;BMP280;23279;46.472;30.760;2022-12-01T06:21:41;79236.81;;;-146.33
37414;BMP280;23279;46.472;30.760;2022-12-01T06:24:07;79267.34;;;-146.33
37414;BMP280;23279;46.472;30.760;2022-12-01T06:26:32;79244.94;;;-146.33
37414;BMP280;23279;46.472;30.760;2022-12-01T06:28:57;79251.06;;;-146.33
37414;BMP280;23279;46.472;30.760;2022-12-01T06:31:23;79255.13;;;-146.33
37414;BMP280;23279;46.472;30.760;2022-12-01T06:33:48;79226.63;;;-146.33
37414;BMP280;23279;46.472;30.760;2022-12-01T06:36:14;79212.38;;;-146.33
37414;BMP280;23279;46.472;30.760;2022-12-01T06:38:39;79240.88;;;-146.33
37414;BMP280;23279;46.472;30.760;2022-12-01T06:41:04;79246.97;;;-146.33
37414;BMP280;23279;46.472;30.760;2022-12-01T06:43:30;79244.94;;;-146.33
37414;BMP280;23279;46.472;30.760;2022-12-01T06:45:56;79251.06;;;-146.33
37414;BMP280;23279;46.472;30.760;2022-12-01T06:48:21;79267.34;;;-146.33
37414;BMP280;23279;46.472;30.760;2022-12-01T06:50:47;79267.34;;;-146.33
37414;BMP280;23279;46.472;30.760;2022-12-01T06:53:12;79277.53;;;-146.33
37414;BMP280;23279;46.472;30.760;2022-12-01T06:55:38;79289.72;;;-146.33
37414;BMP280;23279;46.472;30.760;2022-12-01T06:58:04;79287.69;;;-146.33
37414;BMP280;23279;46.472;30.760;2022-12-01T07:00:30;79314.16;;;-146.33
37414;BMP280;23279;46.472;30.760;2022-12-01T07:02:55;79297.88;;;-146.33
37414;BMP280;23279;46.472;30.760;2022-12-01T07:05:21;79301.94;;;-146.33
37414;BMP280;23279;46.472;30.760;2022-12-01T07:07:46;79310.09;;;-146.33
37414;BMP280;23279;46.472;30.760;2022-12-01T07:10:12;79336.56;;;-146.33
37414;BMP280;23279;46.472;30.760;2022-12-01T07:12:38;79330.44;;;-146.33
37414;BMP280;23279;46.472;30.760;2022-12-01T07:15:05;79340.63;;;-146.33
37414;BMP280;23279;46.472;30.760;2022-12-01T07:17:30;79350.81;;;-146.33
37414;BMP280;23279;46.472;30.760;2022-12-01T07:19:56;79346.75;;;-146.33
37414;BMP280;23279;46.472;30.760;2022-12-01T07:22:22;79367.09;;;-146.33
37414;BMP280;23279;46.472;30.760;2022-12-01T07:24:47;79377.28;;;-146.33
37414;BMP280;23279;46.472;30.760;2022-12-01T07:27:12;79346.75;;;-146.33
37414;BMP280;23279;46.472;30.760;2022-12-01T07:29:38;79338.59;;;-146.33
37414;BMP280;23279;46.472;30.760;2022-12-01T07:32:04;79363.03;;;-146.33
37414;BMP280;23279;46.472;30.760;2022-12-01T07:34:29;79387.47;;;-146.33
37414;BMP280;23279;46.472;30.760;2022-12-01T07:36:55;79389.50;;;-146.33
37414;BMP280;23279;46.472;30.760;2022-12-01T07:39:20;79363.03;;;-146.33
37414;BMP280;23279;46.472;30.760;2022-12-01T07:41:45;79365.06;;;-146.33
37414;BMP280;23279;46.472;30.760;2022-12-01T07:44:11;79358.94;;;-146.33
37414;BMP280;23279;46.472;30.760;2022-12-01T07:46:36;79356.91;;;-146.33
37414;BMP280;23279;46.472;30.760;2022-12-01T07:49:05;79373.22;;;-146.33
37414;BMP280;23279;46.472;30.760;2022-12-01T07:51:31;79389.50;;;-146.33
37414;BMP280;23279;46.472;30.760;2022-12-01T07:54:01;79354.88;;;-146.33
37414;BMP280;23279;46.472;30.760;2022-12-01T07:56:27;79334.53;;;-146.33
37414;BMP280;23279;46.472;30.760;2022-12-01T07:58:53;79391.53;;;-146.33
37414;BMP280;23279;46.472;30.760;2022-12-01T08:01:20;79407.81;;;-146.33
37414;BMP280;23279;46.472;30.760;2022-12-01T08:03:53;79403.75;;;-146.33
37414;BMP280;23279;46.472;30.760;2022-12-01T08:06:19;79407.81;;;-146.33
37414;BMP280;23279;46.472;30.760;2022-12-01T08:08:46;79383.38;;;-146.33
37414;BMP280;23279;46.472;30.760;2022-12-01T08:11:13;79403.75;;;-146.33
37414;BMP280;23279;46.472;30.760;2022-12-01T08:13:40;79393.56;;;-146.33
37414;BMP280;23279;46.472;30.760;2022-12-01T08:16:07;79411.88;;;-146.33
37414;BMP280;23279;46.472;30.760;2022-12-01T08:18:34;79401.72;;;-146.33
37414;BMP280;23279;46.472;30.760;2022-12-01T08:20:59;79379.31;;;-146.33
37414;BMP280;23279;46.472;30.760;2022-12-01T08:23:25;79409.84;;;-146.33
37414;BMP280;23279;46.472;30.760;2022-12-01T08:25:51;79411.88;;;-146.33
37414;BMP280;23279;46.472;30.760;2022-12-01T08:28:19;79407.81;;;-146.33
37414;BMP280;23279;46.472;30.760;2022-12-01T08:30:45;79432.25;;;-146.33
37414;BMP280;23279;46.472;30.760;2022-12-01T08:33:11;79415.97;;;-146.33
37414;BMP280;23279;46.472;30.760;2022-12-01T08:35:38;79407.81;;;-146.33
37414;BMP280;23279;46.472;30.760;2022-12-01T08:38:03;79422.06;;;-146.33
37414;BMP280;23279;46.472;30.760;2022-12-01T08:40:28;79413.94;;;-146.33
37414;BMP280;23279;46.472;30.760;2022-12-01T08:42:54;79444.47;;;-146.33
37414;BMP280;23279;46.472;30.760;2022-12-01T08:45:19;79475.00;;;-146.33
37414;BMP280;23279;46.472;30.760;2022-12-01T08:47:47;79436.31;;;-146.33
37414;BMP280;23279;46.472;30.760;2022-12-01T08:50:12;79438.34;;;-146.33
37414;BMP280;23279;46.472;30.760;2022-12-01T08:52:37;79413.94;;;-146.33
37414;BMP280;23279;46.472;30.760;2022-12-01T08:55:04;79411.88;;;-146.33
37414;BMP280;23279;46.472;30.760;2022-12-01T08:57:30;79440.38;;;-146.33
37414;BMP280;23279;46.472;30.760;2022-12-01T08:59:55;79444.47;;;-146.33
37414;BMP280;23279;46.472;30.760;2022-12-01T09:02:22;79422.06;;;-146.33
37414;BMP280;23279;46.472;30.760;2022-12-01T09:04:49;79436.31;;;-146.33
37414;BMP280;23279;46.472;30.760;2022-12-01T09:07:15;79456.69;;;-146.33
37414;BMP280;23279;46.472;30.760;2022-12-01T09:09:42;79460.75;;;-146.33
37414;BMP280;23279;46.472;30.760;2022-12-01T09:12:09;79452.59;;;-146.33
37414;BMP280;23279;46.472;30.760;2022-12-01T09:14:39;79436.31;;;-146.33
37414;BMP280;23279;46.472;30.760;2022-12-01T09:17:06;79426.13;;;-146.33
37414;BMP280;23279;46.472;30.760;2022-12-01T09:19:32;79407.81;;;-146.33
37414;BMP280;23279;46.472;30.760;2022-12-01T09:21:58;79444.47;;;-146.33
37414;BMP280;23279;46.472;30.760;2022-12-01T09:24:23;79444.47;;;-146.33
37414;BMP280;23279;46.472;30.760;2022-12-01T09:26:55;79434.28;;;-146.33
37414;BMP280;23279;46.472;30.760;2022-12-01T09:29:21;79460.75;;;-146.33
37414;BMP280;23279;46.472;30.760;2022-12-01T09:31:47;79477.03;;;-146.33
37414;BMP280;23279;46.472;30.760;2022-12-01T09:34:15;79505.53;;;-146.33
37414;BMP280;23279;46.472;30.760;2022-12-01T09:36:41;79503.50;;;-146.33
37414;BMP280;23279;46.472;30.760;2022-12-01T09:39:09;79489.25;;;-146.33
37414;BMP280;23279;46.472;30.760;2022-12-01T09:41:39;79481.09;;;-146.33
37414;BMP280;23279;46.472;30.760;2022-12-01T09:47:11;79517.75;;;-146.33
37414;BMP280;23279;46.472;30.760;2022-12-01T09:50:03;79493.31;;;-146.33
37414;BMP280;23279;46.472;30.760;2022-12-01T09:52:32;79513.69;;;-146.33
37414;BMP280;23279;46.472;30.760;2022-12-01T09:54:59;79513.69;;;-146.33
37414;BMP280;23279;46.472;30.760;2022-12-01T09:57:33;79517.75;;;-146.33
37414;BMP280;23279;46.472;30.760;2022-12-01T10:00:05;79505.53;;;-146.33
37414;BMP280;23279;46.472;30.760;2022-12-01T10:02:41;79536.06;;;-146.33
37414;BMP280;23279;46.472;30.760;2022-12-01T10:05:15;79538.13;;;-146.33
37414;BMP280;23279;46.472;30.760;2022-12-01T10:07:46;79529.97;;;-146.33
37414;BMP280;23279;46.472;30.760;2022-12-01T10:10:29;79538.13;;;-146.33
37414;BMP280;23279;46.472;30.760;2022-12-01T10:12:55;79562.53;;;-146.33
37414;BMP280;23279;46.472;30.760;2022-12-01T10:15:34;79529.97;;;-146.33
37414;BMP280;23279;46.472;30.760;2022-12-01T10:24:04;79519.78;;;-146.33
37414;BMP280;23279;46.472;30.760;2022-12-01T10:31:55;79582.91;;;-146.33
37414;BMP280;23279;46.472;30.760;2022-12-01T10:34:35;79562.53;;;-146.33
37414;BMP280;23279;46.472;30.760;2022-12-01T10:37:01;79586.97;;;-146.33
37414;BMP280;23279;46.472;30.760;2022-12-01T10:39:35;79582.91;;;-146.33
37414;BMP280;23279;46.472;30.760;2022-12-01T10:42:05;79591.06;;;-146.33
37414;BMP280;23279;46.472;30.760;2022-12-01T10:44:32;79597.16;;;-146.33
37414;BMP280;23279;46.472;30.760;2022-12-01T10:46:58;79609.38;;;-146.33
37414;BMP280;23279;46.472;30.760;2022-12-01T10:49:41;79607.34;;;-146.33
37414;BMP280;23279;46.472;30.760;2022-12-01T10:52:07;79611.41;;;-146.33
37414;BMP280;23279;46.472;30.760;2022-12-01T10:54:50;79615.47;;;-146.33
37414;BMP280;23279;46.472;30.760;2022-12-01T10:57:16;79613.44;;;-146.33
37414;BMP280;23279;46.472;30.760;2022-12-01T11:02:20;79619.56;;;-146.33
37414;BMP280;23279;46.472;30.760;2022-12-01T11:04:53;79631.78;;;-146.33
37414;BMP280;23279;46.472;30.760;2022-12-01T11:07:22;79676.56;;;-146.33
37414;BMP280;23279;46.472;30.760;2022-12-01T11:10:01;79676.56;;;-146.33
37414;BMP280;23279;46.472;30.760;2022-12-01T11:12:27;79701.00;;;-146.33
37414;BMP280;23279;46.472;30.760;2022-12-01T11:14:54;79670.47;;;-146.33
37414;BMP280;23279;46.472;30.760;2022-12-01T11:17:55;79670.47;;;-146.33
37414;BMP280;23279;46.472;30.760;2022-12-01T11:20:36;79713.22;;;-146.33
37414;BMP280;23279;46.472;30.760;2022-12-01T11:26:06;79694.88;;;-146.33
37414;BMP280;23279;46.472;30.760;2022-12-01T11:28:34;79664.34;;;-146.33
37414;BMP280;23279;46.472;30.760;2022-12-01T11:31:05;79670.47;;;-146.33
37414;BMP280;23279;46.472;30.760;2022-12-01T11:33:50;79688.78;;;-146.33
37414;BMP280;23279;46.472;30.760;2022-12-01T11:38:59;79686.75;;;-146.33
37414;BMP280;23279;46.472;30.760;2022-12-01T11:41:36;79684.72;;;-146.33
37414;BMP280;23279;46.472;30.760;2022-12-01T11:44:06;79701.00;;;-146.33
37414;BMP280;23279;46.472;30.760;2022-12-01T11:46:37;79703.03;;;-146.33
37414;BMP280;23279;46.472;30.760;2022-12-01T11:49:15;79727.47;;;-146.33
37414;BMP280;23279;46.472;30.760;2022-12-01T11:51:41;79725.44;;;-146.33
37414;BMP280;23279;46.472;30.760;2022-12-01T11:54:17;79729.50;;;-146.33
37414;BMP280;23279;46.472;30.760;2022-12-01T11:56:44;79733.56;;;-146.33
37414;BMP280;23279;46.472;30.760;2022-12-01T11:59:13;79727.47;;;-146.33
37414;BMP280;23279;46.472;30.760;2022-12-01T12:07:30;79741.72;;;-146.33
37414;BMP280;23279;46.472;30.760;2022-12-01T12:10:13;79735.63;;;-146.33
37414;BMP280;23279;46.472;30.760;2022-12-01T12:18:56;79723.41;;;-146.33
37414;BMP280;23279;46.472;30.760;2022-12-01T12:27:14;79723.41;;;-146.33
37414;BMP280;23279;46.472;30.760;2022-12-01T12:41:16;79727.47;;;-146.33
37414;BMP280;23279;46.472;30.760;2022-12-01T12:52:21;79717.28;;;-146.33
37414;BMP280;23279;46.472;30.760;2022-12-01T12:54:52;79733.56;;;-146.33
37414;BMP280;23279;46.472;30.760;2022-12-01T12:57:38;79731.53;;;-146.33
37414;BMP280;23279;46.472;30.760;2022-12-01T13:00:18;79719.31;;;-146.33
37414;BMP280;23279;46.472;30.760;2022-12-01T13:05:41;79723.41;;;-146.33
37414;BMP280;23279;46.472;30.760;2022-12-01T13:08:59;79711.19;;;-146.33
37414;BMP280;23279;46.472;30.760;2022-12-01T13:11:09;79715.25;;;-146.33
37414;BMP280;23279;46.472;30.760;2022-12-01T13:16:34;79692.84;;;-146.33
37414;BMP280;23279;46.472;30.760;2022-12-01T13:19:15;79705.06;;;-146.33
37414;BMP280;23279;46.472;30.760;2022-12-01T13:21:43;79725.44;;;-146.33
37414;BMP280;23279;46.472;30.760;2022-12-01T13:24:12;79705.06;;;-146.33
37414;BMP280;23279;46.472;30.760;2022-12-01T13:26:44;79701.00;;;-146.33
37414;BMP280;23279;46.472;30.760;2022-12-01T13:29:15;79690.81;;;-146.33
37414;BMP280;23279;46.472;30.760;2022-12-01T13:31:44;79709.13;;;-146.33
37414;BMP280;23279;46.472;30.760;2022-12-01T13:34:19;79698.97;;;-146.33
37414;BMP280;23279;46.472;30.760;2022-12-01T13:36:50;79701.00;;;-146.33
37414;BMP280;23279;46.472;30.760;2022-12-01T13:41:44;79686.75;;;-146.33
37414;BMP280;23279;46.472;30.760;2022-12-01T13:44:23;79672.50;;;-146.33
37414;BMP280;23279;46.472;30.760;2022-12-01T13:47:00;79674.53;;;-146.33
37414;BMP280;23279;46.472;30.760;2022-12-01T13:57:34;79680.63;;;-146.33
37414;BMP280;23279;46.472;30.760;2022-12-01T14:02:31;79705.06;;;-146.33
37414;BMP280;23279;46.472;30.760;2022-12-01T14:08:12;79688.78;;;-146.33
37414;BMP280;23279;46.472;30.760;2022-12-01T14:10:38;79715.25;;;-146.33
37414;BMP280;23279;46.472;30.760;2022-12-01T14:13:04;79701.00;;;-146.33
37414;BMP280;23279;46.472;30.760;2022-12-01T14:15:37;79698.97;;;-146.33
37414;BMP280;23279;46.472;30.760;2022-12-01T14:18:28;79688.78;;;-146.33
37414;BMP280;23279;46.472;30.760;2022-12-01T14:20:55;79678.59;;;-146.33
37414;BMP280;23279;46.472;30.760;2022-12-01T14:23:25;79696.94;;;-146.33
37414;BMP280;23279;46.472;30.760;2022-12-01T14:34:16;79680.63;;;-146.33
37414;BMP280;23279;46.472;30.760;2022-12-01T14:36:45;79680.63;;;-146.33
37414;BMP280;23279;46.472;30.760;2022-12-01T14:39:23;79690.81;;;-146.33
37414;BMP280;23279;46.472;30.760;2022-12-01T14:44:30;79729.50;;;-146.33
37414;BMP280;23279;46.472;30.760;2022-12-01T14:47:04;79729.50;;;-146.33
37414;BMP280;23279;46.472;30.760;2022-12-01T14:49:36;79709.13;;;-146.33
37414;BMP280;23279;46.472;30.760;2022-12-01T14:52:06;79705.06;;;-146.33
37414;BMP280;23279;46.472;30.760;2022-12-01T14:54:47;79688.78;;;-146.33
37414;BMP280;23279;46.472;30.760;2022-12-01T14:57:17;79694.88;;;-146.33
37414;BMP280;23279;46.472;30.760;2022-12-01T14:59:44;79682.69;;;-146.33
37414;BMP280;23279;46.472;30.760;2022-12-01T15:02:10;79696.94;;;-146.33
37414;BMP280;23279;46.472;30.760;2022-12-01T15:05:05;79705.06;;;-146.33
37414;BMP280;23279;46.472;30.760;2022-12-01T15:07:37;79696.94;;;-146.33
37414;BMP280;23279;46.472;30.760;2022-12-01T15:10:03;79703.03;;;-146.33
37414;BMP280;23279;46.472;30.760;2022-12-01T15:12:31;79701.00;;;-146.33
37414;BMP280;23279;46.472;30.760;2022-12-01T15:14:56;79709.13;;;-146.33
37414;BMP280;23279;46.472;30.760;2022-12-01T15:17:32;79668.41;;;-146.33
37414;BMP280;23279;46.472;30.760;2022-12-01T15:20:03;79668.41;;;-146.33
37414;BMP280;23279;46.472;30.760;2022-12-01T15:22:30;79660.28;;;-146.33
37414;BMP280;23279;46.472;30.760;2022-12-01T15:25:06;79664.34;;;-146.33
37414;BMP280;23279;46.472;30.760;2022-12-01T15:27:32;79672.50;;;-146.33
37414;BMP280;23279;46.472;30.760;2022-12-01T15:29:59;79656.22;;;-146.33
37414;BMP280;23279;46.472;30.760;2022-12-01T15:32:29;79717.28;;;-146.33
37414;BMP280;23279;46.472;30.760;2022-12-01T15:34:55;79717.28;;;-146.33
37414;BMP280;23279;46.472;30.760;2022-12-01T15:37:26;79731.53;;;-146.33
37414;BMP280;23279;46.472;30.760;2022-12-01T15:39:57;79735.63;;;-146.33
37414;BMP280;23279;46.472;30.760;2022-12-01T15:42:31;79739.69;;;-146.33
37414;BMP280;23279;46.472;30.760;2022-12-01T15:45:03;79753.94;;;-146.33
37414;BMP280;23279;46.472;30.760;2022-12-01T15:50:35;79755.97;;;-146.33
37414;BMP280;23279;46.472;30.760;2022-12-01T15:53:26;79727.47;;;-146.33